Time;durP1;ratioP1;P1;durP2;ratioP2;P2;SDS_P1;SDS_P2;PMS_P1;PMS_P2;Temp;Humidity;BMP_temperature;BMP_pressure;BME280_temperature;BME280_humidity;BME280_pressure;Samples;Min_cycle;Max_cycle;Signal;HPM_P1;HPM_P2
2022/10/02 00:01:49;;;;;;;;;;;;;;;;;;4976971;28;7182;-83
2022/10/02 00:04:21;;;;;;;;;;;;;;;;;;4992523;28;9020;-80
2022/10/02 00:06:49;;;;;;;;;;;;;;;;;;4992798;28;8433;-83
2022/10/02 00:09:27;;;;;;;;;;;;;;;;;;4993389;28;8300;-84
2022/10/02 00:11:55;;;;;;;;;;;;;;;;;;4996270;28;8421;-84
2022/10/02 00:14:23;;;;;;;;;;;;;;;;;;4979350;28;7178;-83
2022/10/02 00:16:51;;;;;;;;;;;;;;;;;;4980150;28;8412;-82
2022/10/02 00:19:18;;;;;;;;;;;;;;;;;;4980490;28;8426;-82
2022/10/02 00:21:46;;;;;;;;;;;;;;;;;;4980161;28;7122;-81
2022/10/02 00:24:18;;;;;;;;;;;;;;;;;;4979863;28;7047;-84
2022/10/02 00:26:44;;;;;;;;;;;;;;;;;;4980170;28;7133;-82
2022/10/02 00:29:16;;;;;;;;;;;;;;;;;;4979706;28;8340;-82
2022/10/02 00:31:49;;;;;;;;;;;;;;;;;;4996615;28;7224;-82
2022/10/02 00:34:25;;;;;;;;;;;;;;;;;;4995701;28;8392;-79
2022/10/02 00:37:03;;;;;;;;;;;;;;;;;;4995399;28;7063;-81
2022/10/02 00:39:32;;;;;;;;;;;;;;;;;;4996348;28;7297;-80
2022/10/02 00:42:03;;;;;;;;;;;;;;;;;;4996301;28;8634;-82
2022/10/02 00:44:49;;;;;;;;;;;;;;;;;;4995462;28;8531;-82
2022/10/02 00:47:20;;;;;;;;;;;;;;;;;;4978597;28;7185;-81
2022/10/02 00:49:54;;;;;;;;;;;;;;;;;;4996092;28;8422;-82
2022/10/02 00:52:47;;;;;;;;;;;;;;;;;;4995834;28;8665;-82
2022/10/02 00:55:15;;;;;;;;;;;;;;;;;;4995999;28;8426;-82
2022/10/02 00:57:40;;;;;;;;;;;;;;;;;;4995625;28;8410;-81
2022/10/02 01:00:14;;;;;;;;;;;;;;;;;;4995537;28;8381;-81
2022/10/02 01:02:54;;;;;;;;;;;;;;;;;;4996209;28;8395;-82
2022/10/02 01:05:20;;;;;;;;;;;;;;;;;;4995237;28;7163;-81
2022/10/02 01:07:49;;;;;;;;;;;;;;;;;;4995123;28;7007;-83
2022/10/02 01:10:16;;;;;;;;;;;;;;;;;;5175362;23;7067;-82
2022/10/02 01:12:41;;;;;;;;;;;;;;;;;;4995514;28;7078;-84
2022/10/02 01:15:15;;;;;;;;;;;;;;;;;;5007499;28;8695;-82
2022/10/02 01:17:41;;;;;;;;;;;;;;;;;;5006339;28;7010;-82
2022/10/02 01:20:16;;;;;;;;;;;;;;;;;;4996880;28;7440;-82
2022/10/02 01:22:55;;;;;;;;;;;;;;;;;;4958290;28;7085;-85
2022/10/02 01:25:20;;;;;;;;;;;;;;;;;;4974142;28;8475;-83
2022/10/02 01:27:47;;;;;;;;;;;;;;;;;;4979832;28;7050;-84
2022/10/02 01:30:15;;;;;;;;;;;;;;;;;;4979712;28;7047;-83
2022/10/02 01:32:48;;;;;;;;;;;;;;;;;;4979914;28;7251;-83
2022/10/02 01:35:14;;;;;;;;;;;;;;;;;;4980059;28;7046;-82
2022/10/02 01:37:43;;;;;;;;;;;;;;;;;;4979978;28;7026;-83
2022/10/02 01:40:21;;;;;;;;;;;;;;;;;;4979654;28;7268;-82
2022/10/02 01:42:47;;;;;;;;;;;;;;;;;;4979663;28;6972;-82
2022/10/02 01:45:13;;;;;;;;;;;;;;;;;;4979859;28;8706;-82
2022/10/02 01:47:48;;;;;;;;;;;;;;;;;;4979774;28;8274;-82
2022/10/02 01:50:37;;;;;;;;;;;;;;;;;;4979836;28;8685;-81
2022/10/02 01:53:11;;;;;;;;;;;;;;;;;;4970315;28;8414;-82
2022/10/02 01:55:42;;;;;;;;;;;;;;;;;;4979690;28;8377;-83
2022/10/02 01:58:18;;;;;;;;;;;;;;;;;;4979586;28;9024;-83
2022/10/02 02:01:02;;;;;;;;;;;;;;;;;;4979576;28;7233;-83
2022/10/02 02:03:33;;;;;;;;;;;;;;;;;;4979237;28;8325;-82
2022/10/02 02:06:04;;;;;;;;;;;;;;;;;;4979407;28;8700;-83
2022/10/02 02:08:34;;;;;;;;;;;;;;;;;;4979501;28;8880;-82
2022/10/02 02:11:00;;;;;;;;;;;;;;;;;;4978824;28;8326;-82
2022/10/02 02:13:31;;;;;;;;;;;;;;;;;;4978984;28;8300;-83
2022/10/02 02:16:03;;;;;;;;;;;;;;;;;;4979098;28;8425;-83
2022/10/02 02:18:39;;;;;;;;;;;;;;;;;;4979976;28;7270;-82
2022/10/02 02:21:25;;;;;;;;;;;;;;;;;;4979261;28;8371;-82
2022/10/02 02:23:54;;;;;;;;;;;;;;;;;;4978948;28;8691;-83
2022/10/02 02:26:23;;;;;;;;;;;;;;;;;;4978577;28;7432;-82
2022/10/02 02:28:53;;;;;;;;;;;;;;;;;;4978836;28;8390;-82
2022/10/02 02:31:22;;;;;;;;;;;;;;;;;;4979100;28;7246;-83
2022/10/02 02:33:53;;;;;;;;;;;;;;;;;;4977903;28;8725;-83
2022/10/02 02:36:23;;;;;;;;;;;;;;;;;;4979531;28;8708;-83
2022/10/02 02:38:56;;;;;;;;;;;;;;;;;;4978511;28;8396;-82
2022/10/02 02:41:26;;;;;;;;;;;;;;;;;;4978884;28;8302;-83
2022/10/02 02:43:58;;;;;;;;;;;;;;;;;;4978823;28;7276;-81
2022/10/02 02:46:30;;;;;;;;;;;;;;;;;;4978456;28;8482;-83
2022/10/02 02:49:01;;;;;;;;;;;;;;;;;;4979164;28;8721;-83
2022/10/02 02:51:32;;;;;;;;;;;;;;;;;;4978678;28;7247;-83
2022/10/02 02:54:14;;;;;;;;;;;;;;;;;;4978466;28;7229;-82
2022/10/02 02:56:42;;;;;;;;;;;;;;;;;;4978222;28;7067;-81
2022/10/02 02:59:10;;;;;;;;;;;;;;;;;;4977054;28;7175;-83
2022/10/02 03:01:36;;;;;;;;;;;;;;;;;;4977394;28;8471;-80
2022/10/02 03:04:02;;;;;;;;;;;;;;;;;;4977510;28;7327;-83
2022/10/02 03:06:36;;;;;;;;;;;;;;;;;;4977224;28;7315;-83
2022/10/02 03:09:05;;;;;;;;;;;;;;;;;;4978400;28;8807;-82
2022/10/02 03:11:31;;;;;;;;;;;;;;;;;;4978157;28;8306;-81
2022/10/02 03:14:09;;;;;;;;;;;;;;;;;;4978937;28;8647;-81
2022/10/02 03:16:35;;;;;;;;;;;;;;;;;;4978442;28;8495;-83
2022/10/02 03:19:16;;;;;;;;;;;;;;;;;;4977821;28;8482;-81
2022/10/02 03:21:41;;;;;;;;;;;;;;;;;;4978265;28;7164;-81
2022/10/02 03:24:39;;;;;;;;;;;;;;;;;;4978408;28;8346;-82
2022/10/02 03:27:09;;;;;;;;;;;;;;;;;;4941353;28;7977;-81
2022/10/02 03:29:38;;;;;;;;;;;;;;;;;;4975023;28;7103;-81
2022/10/02 03:32:07;;;;;;;;;;;;;;;;;;4958203;28;8428;-82
2022/10/02 03:34:34;;;;;;;;;;;;;;;;;;4957996;28;7537;-82
2022/10/02 03:37:01;;;;;;;;;;;;;;;;;;4958938;28;7160;-82
2022/10/02 03:39:27;;;;;;;;;;;;;;;;;;4958138;28;8747;-81
2022/10/02 03:41:53;;;;;;;;;;;;;;;;;;4958277;28;8406;-82
2022/10/02 03:44:19;;;;;;;;;;;;;;;;;;4958541;28;8762;-82
2022/10/02 03:46:44;;;;;;;;;;;;;;;;;;4961543;28;8415;-82
2022/10/02 03:49:10;;;;;;;;;;;;;;;;;;4963213;28;7124;-81
2022/10/02 03:51:35;;;;;;;;;;;;;;;;;;4962740;28;7403;-81
2022/10/02 03:54:02;;;;;;;;;;;;;;;;;;4962308;28;7423;-80
2022/10/02 03:56:36;;;;;;;;;;;;;;;;;;4962881;28;8704;-82
2022/10/02 03:59:06;;;;;;;;;;;;;;;;;;4963080;28;8306;-81
2022/10/02 04:01:36;;;;;;;;;;;;;;;;;;4962188;28;7159;-81
2022/10/02 04:04:16;;;;;;;;;;;;;;;;;;4962465;28;8574;-81
2022/10/02 04:06:47;;;;;;;;;;;;;;;;;;4962215;28;9022;-82
2022/10/02 04:09:23;;;;;;;;;;;;;;;;;;4962330;28;7249;-82
2022/10/02 04:11:55;;;;;;;;;;;;;;;;;;4962252;28;8391;-82
2022/10/02 04:14:30;;;;;;;;;;;;;;;;;;4962498;28;8747;-83
2022/10/02 04:16:56;;;;;;;;;;;;;;;;;;4962105;28;7228;-83
2022/10/02 04:19:41;;;;;;;;;;;;;;;;;;4961330;28;7119;-82
2022/10/02 04:22:21;;;;;;;;;;;;;;;;;;4961831;28;8383;-83
2022/10/02 04:24:52;;;;;;;;;;;;;;;;;;4961407;28;8418;-82
2022/10/02 04:27:22;;;;;;;;;;;;;;;;;;4960718;28;9111;-82
2022/10/02 04:29:52;;;;;;;;;;;;;;;;;;4960566;28;7119;-80
2022/10/02 04:32:29;;;;;;;;;;;;;;;;;;4961699;28;9310;-82
2022/10/02 04:34:56;;;;;;;;;;;;;;;;;;4962082;28;8428;-81
2022/10/02 04:37:39;;;;;;;;;;;;;;;;;;4961755;28;8348;-82
2022/10/02 04:40:40;;;;;;;;;;;;;;;;;;4961594;28;7450;-80
2022/10/02 04:43:24;;;;;;;;;;;;;;;;;;4922703;29;8723;-85
2022/10/02 04:46:08;;;;;;;;;;;;;;;;;;4922320;29;8369;-82
2022/10/02 04:48:52;;;;;;;;;;;;;;;;;;4922547;29;9517;-81
2022/10/02 04:51:36;;;;;;;;;;;;;;;;;;4922411;29;7272;-78
2022/10/02 04:54:19;;;;;;;;;;;;;;;;;;4921977;29;7059;-81
2022/10/02 04:56:54;;;;;;;;;;;;;;;;;;4921435;29;8657;-81
2022/10/02 04:59:25;;;;;;;;;;;;;;;;;;4922101;29;6828;-79
2022/10/02 05:02:08;;;;;;;;;;;;;;;;;;4924126;29;7924;-77
2022/10/02 05:04:50;;;;;;;;;;;;;;;;;;4922343;29;7075;-77
2022/10/02 05:07:25;;;;;;;;;;;;;;;;;;4922015;29;7259;-77
2022/10/02 05:09:50;;;;;;;;;;;;;;;;;;4921823;29;8680;-77
2022/10/02 05:12:27;;;;;;;;;;;;;;;;;;4921827;29;8070;-81
2022/10/02 05:14:55;;;;;;;;;;;;;;;;;;4921937;29;8695;-81
2022/10/02 05:17:23;;;;;;;;;;;;;;;;;;4945637;28;8379;-80
2022/10/02 05:20:05;;;;;;;;;;;;;;;;;;4960859;28;8396;-81
2022/10/02 05:22:45;;;;;;;;;;;;;;;;;;4960827;28;8551;-81
2022/10/02 05:25:28;;;;;;;;;;;;;;;;;;4960658;28;7197;-81
2022/10/02 05:27:56;;;;;;;;;;;;;;;;;;4960864;28;8728;-80
2022/10/02 05:30:23;;;;;;;;;;;;;;;;;;4960947;28;8432;-80
2022/10/02 05:33:07;;;;;;;;;;;;;;;;;;4960958;28;8418;-80
2022/10/02 05:35:33;;;;;;;;;;;;;;;;;;4960734;28;8383;-79
2022/10/02 05:38:09;;;;;;;;;;;;;;;;;;4960635;28;8318;-81
2022/10/02 05:40:53;;;;;;;;;;;;;;;;;;4960529;28;8318;-81
2022/10/02 05:43:37;;;;;;;;;;;;;;;;;;4960766;28;7323;-81
2022/10/02 05:46:09;;;;;;;;;;;;;;;;;;4960472;28;7046;-81
2022/10/02 05:48:45;;;;;;;;;;;;;;;;;;4961036;28;7596;-82
2022/10/02 05:51:35;;;;;;;;;;;;;;;;;;4960457;28;7438;-80
2022/10/02 05:54:12;;;;;;;;;;;;;;;;;;4960367;28;8293;-81
2022/10/02 05:56:43;;;;;;;;;;;;;;;;;;4961349;28;7053;-82
2022/10/02 05:59:18;;;;;;;;;;;;;;;;;;4959854;28;8399;-82
2022/10/02 06:01:47;;;;;;;;;;;;;;;;;;4959610;28;8762;-81
2022/10/02 06:04:35;;;;;;;;;;;;;;;;;;4959887;28;7378;-82
2022/10/02 06:07:06;;;;;;;;;;;;;;;;;;4960157;28;8678;-82
2022/10/02 06:09:53;;;;;;;;;;;;;;;;;;4959609;28;8426;-84
2022/10/02 06:12:29;;;;;;;;;;;;;;;;;;4960221;28;8713;-82
2022/10/02 06:15:08;;;;;;;;;;;;;;;;;;4960128;28;7044;-82
2022/10/02 06:17:41;;;;;;;;;;;;;;;;;;4959688;28;8535;-81
2022/10/02 06:20:15;;;;;;;;;;;;;;;;;;4960486;28;8491;-81
2022/10/02 06:22:58;;;;;;;;;;;;;;;;;;4960203;28;8604;-83
2022/10/02 06:25:32;;;;;;;;;;;;;;;;;;4959591;28;7088;-82
2022/10/02 06:28:21;;;;;;;;;;;;;;;;;;4959546;28;7248;-81
2022/10/02 06:30:51;;;;;;;;;;;;;;;;;;4959886;28;8426;-82
2022/10/02 06:33:22;;;;;;;;;;;;;;;;;;4960122;28;7269;-82
2022/10/02 06:36:06;;;;;;;;;;;;;;;;;;4959863;28;7410;-82
2022/10/02 06:38:38;;;;;;;;;;;;;;;;;;4959698;28;7141;-82
2022/10/02 06:41:23;;;;;;;;;;;;;;;;;;4959133;28;8881;-82
2022/10/02 06:44:08;;;;;;;;;;;;;;;;;;4959725;28;7063;-82
2022/10/02 06:46:33;;;;;;;;;;;;;;;;;;4959124;28;8709;-83
2022/10/02 06:49:03;;;;;;;;;;;;;;;;;;4959866;28;8419;-82
2022/10/02 06:51:29;;;;;;;;;;;;;;;;;;4959192;28;8314;-80
2022/10/02 06:54:00;;;;;;;;;;;;;;;;;;4959182;28;7042;-82
2022/10/02 06:56:26;;;;;;;;;;;;;;;;;;4959554;28;7163;-83
2022/10/02 06:58:54;;;;;;;;;;;;;;;;;;4959286;28;8395;-82
2022/10/02 07:01:19;;;;;;;;;;;;;;;;;;4959018;28;8547;-82
2022/10/02 07:03:51;;;;;;;;;;;;;;;;;;4958334;28;8694;-81
2022/10/02 07:06:44;;;;;;;;;;;;;;;;;;4958630;28;8409;-81
2022/10/02 07:09:23;;;;;;;;;;;;;;;;;;4957994;28;8385;-82
2022/10/02 07:11:48;;;;;;;;;;;;;;;;;;4959044;28;8464;-82
2022/10/02 07:14:27;;;;;;;;;;;;;;;;;;4959122;28;8387;-81
2022/10/02 07:17:04;;;;;;;;;;;;;;;;;;4958725;28;8740;-82
2022/10/02 07:19:39;;;;;;;;;;;;;;;;;;4958123;28;7451;-81
2022/10/02 07:22:17;;;;;;;;;;;;;;;;;;4958326;28;8805;-81
2022/10/02 07:25:14;;;;;;;;;;;;;;;;;;4958601;28;8385;-82
2022/10/02 07:27:58;;;;;;;;;;;;;;;;;;4958579;28;7039;-81
2022/10/02 07:30:24;;;;;;;;;;;;;;;;;;4958855;28;8286;-81
2022/10/02 07:32:56;;;;;;;;;;;;;;;;;;4958435;28;8207;-82
2022/10/02 07:35:21;;;;;;;;;;;;;;;;;;4958978;28;7734;-82
2022/10/02 07:38:05;;;;;;;;;;;;;;;;;;4958820;28;8632;-82
2022/10/02 07:40:40;;;;;;;;;;;;;;;;;;4958553;28;8395;-81
2022/10/02 07:43:27;;;;;;;;;;;;;;;;;;4959029;28;7043;-81
2022/10/02 07:46:02;;;;;;;;;;;;;;;;;;4958528;28;7038;-81
2022/10/02 07:48:42;;;;;;;;;;;;;;;;;;4959732;28;7171;-81
2022/10/02 07:54:13;;;;;;;;;;;;;;;;;;4976010;28;6938;-82
2022/10/02 07:56:39;;;;;;;;;;;;;;;;;;4958831;28;7152;-82
2022/10/02 07:59:11;;;;;;;;;;;;;;;;;;4958425;28;7240;-82
2022/10/02 08:01:42;;;;;;;;;;;;;;;;;;4958814;28;8559;-82
2022/10/02 08:04:18;;;;;;;;;;;;;;;;;;4958618;28;8316;-81
2022/10/02 08:06:53;;;;;;;;;;;;;;;;;;4958541;28;8656;-81
2022/10/02 08:09:29;;;;;;;;;;;;;;;;;;4958627;28;8415;-81
2022/10/02 08:12:00;;;;;;;;;;;;;;;;;;4958531;28;8400;-82
2022/10/02 08:14:44;;;;;;;;;;;;;;;;;;4959023;28;9357;-82
2022/10/02 08:17:28;;;;;;;;;;;;;;;;;;4958999;28;7166;-82
2022/10/02 08:20:01;;;;;;;;;;;;;;;;;;4958195;28;8450;-82
2022/10/02 08:22:27;;;;;;;;;;;;;;;;;;4958109;28;7034;-82
2022/10/02 08:24:58;;;;;;;;;;;;;;;;;;4958414;28;7103;-84
2022/10/02 08:27:28;;;;;;;;;;;;;;;;;;4957962;28;8492;-84
2022/10/02 08:30:13;;;;;;;;;;;;;;;;;;4958224;28;8471;-84
2022/10/02 08:32:39;;;;;;;;;;;;;;;;;;4960951;28;7175;-83
2022/10/02 08:35:11;;;;;;;;;;;;;;;;;;4961843;28;8388;-84
2022/10/02 08:37:55;;;;;;;;;;;;;;;;;;4962706;28;7425;-84
2022/10/02 08:40:39;;;;;;;;;;;;;;;;;;4962015;28;8770;-84
2022/10/02 08:43:23;;;;;;;;;;;;;;;;;;4961322;28;8474;-84
2022/10/02 08:46:08;;;;;;;;;;;;;;;;;;4961810;28;6822;-84
2022/10/02 08:48:57;;;;;;;;;;;;;;;;;;4961533;28;8472;-83
2022/10/02 08:51:41;;;;;;;;;;;;;;;;;;4961703;28;8404;-85
2022/10/02 08:54:24;;;;;;;;;;;;;;;;;;4961595;28;7030;-84
2022/10/02 08:57:08;;;;;;;;;;;;;;;;;;4961187;28;8611;-84
2022/10/02 08:59:51;;;;;;;;;;;;;;;;;;4961082;28;8593;-84
2022/10/02 09:02:35;;;;;;;;;;;;;;;;;;4961729;28;7165;-84
2022/10/02 09:05:08;;;;;;;;;;;;;;;;;;4961264;28;8432;-85
2022/10/02 09:07:35;;;;;;;;;;;;;;;;;;4960797;28;7218;-84
2022/10/02 09:10:36;;;;;;;;;;;;;;;;;;4958064;28;8949;-84
2022/10/02 09:13:22;;;;;;;;;;;;;;;;;;4941439;28;8605;-84
2022/10/02 09:16:08;;;;;;;;;;;;;;;;;;4955459;28;7067;-83
2022/10/02 09:18:47;;;;;;;;;;;;;;;;;;4947700;28;8439;-85
2022/10/02 09:21:16;;;;;;;;;;;;;;;;;;4957793;28;8543;-83
2022/10/02 09:24:00;;;;;;;;;;;;;;;;;;4957827;28;8541;-84
2022/10/02 09:26:38;;;;;;;;;;;;;;;;;;4958175;28;9116;-84
2022/10/02 09:29:18;;;;;;;;;;;;;;;;;;4957581;28;7169;-84
2022/10/02 09:32:01;;;;;;;;;;;;;;;;;;4957870;28;8408;-84
2022/10/02 09:34:30;;;;;;;;;;;;;;;;;;4957898;28;8331;-85
2022/10/02 09:37:15;;;;;;;;;;;;;;;;;;4974397;28;7133;-84
2022/10/02 09:39:43;;;;;;;;;;;;;;;;;;4957265;28;8429;-84
2022/10/02 09:42:09;;;;;;;;;;;;;;;;;;4957510;28;9344;-84
2022/10/02 09:44:47;;;;;;;;;;;;;;;;;;4956826;28;8440;-85
2022/10/02 09:47:13;;;;;;;;;;;;;;;;;;4956935;28;8559;-84
2022/10/02 09:49:50;;;;;;;;;;;;;;;;;;4957221;28;8399;-84
2022/10/02 09:52:45;;;;;;;;;;;;;;;;;;4957614;28;6956;-84
2022/10/02 09:55:20;;;;;;;;;;;;;;;;;;4956622;28;7753;-84
2022/10/02 09:57:50;;;;;;;;;;;;;;;;;;4957062;28;8894;-84
2022/10/02 10:00:19;;;;;;;;;;;;;;;;;;4957245;28;8902;-87
2022/10/02 10:03:07;;;;;;;;;;;;;;;;;;4957046;28;7176;-83
2022/10/02 10:05:47;;;;;;;;;;;;;;;;;;4956754;28;8446;-78
2022/10/02 10:08:13;;;;;;;;;;;;;;;;;;4957666;28;7160;-83
2022/10/02 10:10:45;;;;;;;;;;;;;;;;;;4956600;28;8805;-84
2022/10/02 10:13:31;;;;;;;;;;;;;;;;;;4956950;28;7349;-83
2022/10/02 10:16:17;;;;;;;;;;;;;;;;;;4956511;28;7046;-83
2022/10/02 10:18:53;;;;;;;;;;;;;;;;;;4956678;28;7303;-83
2022/10/02 10:21:25;;;;;;;;;;;;;;;;;;4956556;28;7230;-83
2022/10/02 10:23:54;;;;;;;;;;;;;;;;;;4956924;28;7048;-84
2022/10/02 10:26:33;;;;;;;;;;;;;;;;;;4956231;28;8410;-83
2022/10/02 10:29:25;;;;;;;;;;;;;;;;;;4956431;28;8877;-83
2022/10/02 10:32:09;;;;;;;;;;;;;;;;;;4956237;28;8450;-82
2022/10/02 10:34:37;;;;;;;;;;;;;;;;;;4956469;28;7264;-83
2022/10/02 10:40:31;;;;;;;;;;;;;;;;;;4955456;28;7232;-81
2022/10/02 10:43:15;;;;;;;;;;;;;;;;;;4939121;28;7154;-84
2022/10/02 10:45:40;;;;;;;;;;;;;;;;;;4954848;28;9604;-83
2022/10/02 10:48:26;;;;;;;;;;;;;;;;;;4955030;28;8474;-78
2022/10/02 10:51:15;;;;;;;;;;;;;;;;;;4955224;28;8889;-84
2022/10/02 10:54:04;;;;;;;;;;;;;;;;;;4939345;28;8744;-85
2022/10/02 10:56:34;;;;;;;;;;;;;;;;;;4938884;28;7065;-84
2022/10/02 10:59:15;;;;;;;;;;;;;;;;;;4955196;28;7045;-83
2022/10/02 11:01:56;;;;;;;;;;;;;;;;;;4939084;28;7276;-83
2022/10/02 11:04:36;;;;;;;;;;;;;;;;;;4939151;28;8481;-84
2022/10/02 11:07:19;;;;;;;;;;;;;;;;;;4939109;28;7356;-84
2022/10/02 11:09:50;;;;;;;;;;;;;;;;;;4954958;28;8912;-84
2022/10/02 11:12:40;;;;;;;;;;;;;;;;;;4972079;28;8441;-84
2022/10/02 11:15:24;;;;;;;;;;;;;;;;;;4955862;28;8519;-82
2022/10/02 11:18:05;;;;;;;;;;;;;;;;;;4954028;28;8550;-80
2022/10/02 11:20:43;;;;;;;;;;;;;;;;;;4957278;28;7222;-80
2022/10/02 11:23:27;;;;;;;;;;;;;;;;;;4955880;28;7010;-81
2022/10/02 11:26:01;;;;;;;;;;;;;;;;;;4955348;28;8706;-80
2022/10/02 11:28:28;;;;;;;;;;;;;;;;;;4955509;28;8486;-81
2022/10/02 11:30:54;;;;;;;;;;;;;;;;;;4955211;28;8565;-83
2022/10/02 11:33:22;;;;;;;;;;;;;;;;;;4955991;28;8429;-83
2022/10/02 11:35:55;;;;;;;;;;;;;;;;;;4955447;28;8492;-82
2022/10/02 11:38:22;;;;;;;;;;;;;;;;;;4955623;28;8652;-82
2022/10/02 11:40:53;;;;;;;;;;;;;;;;;;4955135;28;7083;-82
2022/10/02 11:43:19;;;;;;;;;;;;;;;;;;4955330;28;8677;-82
2022/10/02 11:45:53;;;;;;;;;;;;;;;;;;4955151;28;7133;-83
2022/10/02 11:48:37;;;;;;;;;;;;;;;;;;4955816;28;8617;-82
2022/10/02 11:51:34;;;;;;;;;;;;;;;;;;4955190;28;7192;-82
2022/10/02 11:54:09;;;;;;;;;;;;;;;;;;4955544;28;7525;-84
2022/10/02 11:56:34;;;;;;;;;;;;;;;;;;4955450;28;8455;-82
2022/10/02 11:59:06;;;;;;;;;;;;;;;;;;4955105;28;8715;-83
2022/10/02 12:01:32;;;;;;;;;;;;;;;;;;4955132;28;7251;-82
2022/10/02 12:03:57;;;;;;;;;;;;;;;;;;4955450;28;8831;-83
2022/10/02 12:06:55;;;;;;;;;;;;;;;;;;4955634;28;8378;-83
2022/10/02 12:09:24;;;;;;;;;;;;;;;;;;4948788;28;8733;-82
2022/10/02 12:12:01;;;;;;;;;;;;;;;;;;4962092;28;8404;-83
2022/10/02 12:14:33;;;;;;;;;;;;;;;;;;4961941;28;8768;-83
2022/10/02 12:16:59;;;;;;;;;;;;;;;;;;4962305;28;7176;-80
2022/10/02 12:19:35;;;;;;;;;;;;;;;;;;4961489;28;7017;-81
2022/10/02 12:27:58;;;;;;;;;;;;;;;;;;4979195;28;6945;-82
2022/10/02 12:30:38;;;;;;;;;;;;;;;;;;4962186;28;8753;-81
2022/10/02 12:33:07;;;;;;;;;;;;;;;;;;4962152;28;8480;-80
2022/10/02 12:35:41;;;;;;;;;;;;;;;;;;4961891;28;7069;-82
2022/10/02 12:38:30;;;;;;;;;;;;;;;;;;4961811;28;8742;-82
2022/10/02 12:40:55;;;;;;;;;;;;;;;;;;4942669;28;8466;-77
2022/10/02 12:43:26;;;;;;;;;;;;;;;;;;4962370;28;7283;-82
2022/10/02 12:46:06;;;;;;;;;;;;;;;;;;4961605;28;8433;-82
2022/10/02 12:48:38;;;;;;;;;;;;;;;;;;4961274;28;7435;-82
2022/10/02 12:51:22;;;;;;;;;;;;;;;;;;4960651;28;8517;-82
2022/10/02 12:53:48;;;;;;;;;;;;;;;;;;4961387;28;8738;-81
2022/10/02 12:56:17;;;;;;;;;;;;;;;;;;4960457;28;8762;-81
2022/10/02 12:58:48;;;;;;;;;;;;;;;;;;4961045;28;7186;-83
2022/10/02 13:01:33;;;;;;;;;;;;;;;;;;4960982;28;8575;-82
2022/10/02 13:04:04;;;;;;;;;;;;;;;;;;4961409;28;7086;-83
2022/10/02 13:06:51;;;;;;;;;;;;;;;;;;4961433;28;7177;-82
2022/10/02 13:09:25;;;;;;;;;;;;;;;;;;4960985;28;7206;-82
2022/10/02 13:11:56;;;;;;;;;;;;;;;;;;4961172;28;7274;-83
2022/10/02 13:14:25;;;;;;;;;;;;;;;;;;4960789;28;8450;-82
2022/10/02 13:17:09;;;;;;;;;;;;;;;;;;4960844;28;8440;-83
2022/10/02 13:19:41;;;;;;;;;;;;;;;;;;4960418;28;8461;-83
2022/10/02 13:22:08;;;;;;;;;;;;;;;;;;4960723;28;8349;-79
2022/10/02 13:24:56;;;;;;;;;;;;;;;;;;4958831;28;8175;-82
2022/10/02 13:27:28;;;;;;;;;;;;;;;;;;4954800;28;8687;-82
2022/10/02 13:30:04;;;;;;;;;;;;;;;;;;4959569;28;8700;-82
2022/10/02 13:32:54;;;;;;;;;;;;;;;;;;4960260;28;7427;-83
2022/10/02 13:35:58;;;;;;;;;;;;;;;;;;4960346;28;8445;-80
2022/10/02 13:38:45;;;;;;;;;;;;;;;;;;4921065;29;8362;-82
2022/10/02 13:41:12;;;;;;;;;;;;;;;;;;4920100;29;8433;-82
2022/10/02 13:44:04;;;;;;;;;;;;;;;;;;4920297;29;8431;-82
2022/10/02 13:46:44;;;;;;;;;;;;;;;;;;4919630;29;8550;-83
2022/10/02 13:49:21;;;;;;;;;;;;;;;;;;4921080;29;7196;-81
2022/10/02 13:51:47;;;;;;;;;;;;;;;;;;4920743;29;8947;-81
2022/10/02 13:54:12;;;;;;;;;;;;;;;;;;4920863;29;8500;-81
2022/10/02 13:56:38;;;;;;;;;;;;;;;;;;4921005;29;7138;-82
2022/10/02 13:59:22;;;;;;;;;;;;;;;;;;4920781;29;8389;-82
2022/10/02 14:01:51;;;;;;;;;;;;;;;;;;4920706;29;8768;-82
2022/10/02 14:04:37;;;;;;;;;;;;;;;;;;4920633;29;7211;-83
2022/10/02 14:07:16;;;;;;;;;;;;;;;;;;4916653;29;8456;-83
2022/10/02 14:10:00;;;;;;;;;;;;;;;;;;4948485;28;8482;-81
2022/10/02 14:12:31;;;;;;;;;;;;;;;;;;4959897;28;8437;-81
2022/10/02 14:15:00;;;;;;;;;;;;;;;;;;4959490;28;8423;-82
2022/10/02 14:17:35;;;;;;;;;;;;;;;;;;4960108;28;8911;-83
2022/10/02 14:20:07;;;;;;;;;;;;;;;;;;4960394;28;7062;-81
2022/10/02 14:22:41;;;;;;;;;;;;;;;;;;4960151;28;8730;-81
2022/10/02 14:25:25;;;;;;;;;;;;;;;;;;4959867;28;8666;-82
2022/10/02 14:27:51;;;;;;;;;;;;;;;;;;4959416;28;7275;-82
2022/10/02 14:30:21;;;;;;;;;;;;;;;;;;4959673;28;8418;-83
2022/10/02 14:32:58;;;;;;;;;;;;;;;;;;4959441;28;8462;-81
2022/10/02 14:35:34;;;;;;;;;;;;;;;;;;4959558;28;8551;-81
2022/10/02 14:37:59;;;;;;;;;;;;;;;;;;4959496;28;8442;-83
2022/10/02 14:40:35;;;;;;;;;;;;;;;;;;4959397;28;8423;-82
2022/10/02 14:43:17;;;;;;;;;;;;;;;;;;4959340;28;9127;-81
2022/10/02 14:46:04;;;;;;;;;;;;;;;;;;4959444;28;7090;-82
2022/10/02 14:48:48;;;;;;;;;;;;;;;;;;4959689;28;8656;-81
2022/10/02 14:51:32;;;;;;;;;;;;;;;;;;4959288;28;8445;-83
2022/10/02 14:54:22;;;;;;;;;;;;;;;;;;4959192;28;8467;-82
2022/10/02 14:56:51;;;;;;;;;;;;;;;;;;4953109;28;7471;-82
2022/10/02 14:59:26;;;;;;;;;;;;;;;;;;4959137;28;7051;-83
2022/10/02 15:02:09;;;;;;;;;;;;;;;;;;4976304;28;7152;-81
2022/10/02 15:04:34;;;;;;;;;;;;;;;;;;4959522;28;8653;-78
2022/10/02 15:07:20;;;;;;;;;;;;;;;;;;4958183;28;8797;-82
2022/10/02 15:09:45;;;;;;;;;;;;;;;;;;4954274;28;8754;-79
2022/10/02 15:12:15;;;;;;;;;;;;;;;;;;4955690;28;8388;-84
2022/10/02 15:14:54;;;;;;;;;;;;;;;;;;4956092;28;7199;-84
2022/10/02 15:20:10;;;;;;;;;;;;;;;;;;4956698;28;6778;-84
2022/10/02 15:22:45;;;;;;;;;;;;;;;;;;4955035;28;7064;-84
2022/10/02 15:25:39;;;;;;;;;;;;;;;;;;4955512;28;7240;-84
2022/10/02 15:28:17;;;;;;;;;;;;;;;;;;4955752;28;7007;-84
2022/10/02 15:30:51;;;;;;;;;;;;;;;;;;4955342;28;7284;-84
2022/10/02 15:33:23;;;;;;;;;;;;;;;;;;4954895;28;7463;-83
2022/10/02 15:36:01;;;;;;;;;;;;;;;;;;4954741;28;9034;-85
2022/10/02 15:38:42;;;;;;;;;;;;;;;;;;4955550;28;7180;-85
2022/10/02 15:41:11;;;;;;;;;;;;;;;;;;4956236;28;8407;-86
2022/10/02 15:43:45;;;;;;;;;;;;;;;;;;4959318;28;8442;-86
2022/10/02 15:46:25;;;;;;;;;;;;;;;;;;4960030;28;8742;-85
2022/10/02 15:48:50;;;;;;;;;;;;;;;;;;4959417;28;7116;-86
2022/10/02 15:51:36;;;;;;;;;;;;;;;;;;4959234;28;7168;-85
2022/10/02 15:54:30;;;;;;;;;;;;;;;;;;4959118;28;7179;-85
2022/10/02 15:56:55;;;;;;;;;;;;;;;;;;4959266;28;7059;-85
2022/10/02 15:59:21;;;;;;;;;;;;;;;;;;4959091;28;8452;-84
2022/10/02 16:01:46;;;;;;;;;;;;;;;;;;4959028;28;8398;-83
2022/10/02 16:04:30;;;;;;;;;;;;;;;;;;4959534;28;8404;-85
2022/10/02 16:07:15;;;;;;;;;;;;;;;;;;4958939;28;8440;-84
2022/10/02 16:09:49;;;;;;;;;;;;;;;;;;4958834;28;8843;-85
2022/10/02 16:12:30;;;;;;;;;;;;;;;;;;4959195;28;8781;-87
2022/10/02 16:15:02;;;;;;;;;;;;;;;;;;4959330;28;8512;-84
2022/10/02 16:17:45;;;;;;;;;;;;;;;;;;4959408;28;8703;-84
2022/10/02 16:20:17;;;;;;;;;;;;;;;;;;4959074;28;8519;-85
2022/10/02 16:22:51;;;;;;;;;;;;;;;;;;4959001;28;7281;-84
2022/10/02 16:25:17;;;;;;;;;;;;;;;;;;4959171;28;7469;-82
2022/10/02 16:27:50;;;;;;;;;;;;;;;;;;4958683;28;8734;-84
2022/10/02 16:30:18;;;;;;;;;;;;;;;;;;4958810;28;8387;-84
2022/10/02 16:33:02;;;;;;;;;;;;;;;;;;4958457;28;7035;-84
2022/10/02 16:35:47;;;;;;;;;;;;;;;;;;4958757;28;7392;-85
2022/10/02 16:38:13;;;;;;;;;;;;;;;;;;4958322;28;8023;-85
2022/10/02 16:41:03;;;;;;;;;;;;;;;;;;4958684;28;7205;-84
2022/10/02 16:43:35;;;;;;;;;;;;;;;;;;4958235;28;8436;-84
2022/10/02 16:46:20;;;;;;;;;;;;;;;;;;4958686;28;8820;-85
2022/10/02 16:48:45;;;;;;;;;;;;;;;;;;4958194;28;7332;-85
2022/10/02 16:51:14;;;;;;;;;;;;;;;;;;4958708;28;8933;-84
2022/10/02 16:53:49;;;;;;;;;;;;;;;;;;4957217;28;7175;-85
2022/10/02 16:56:20;;;;;;;;;;;;;;;;;;4959097;28;7001;-84
2022/10/02 16:58:49;;;;;;;;;;;;;;;;;;4960278;28;8477;-85
2022/10/02 17:01:34;;;;;;;;;;;;;;;;;;4957939;28;7412;-85
2022/10/02 17:04:04;;;;;;;;;;;;;;;;;;4958047;28;8407;-84
2022/10/02 17:06:34;;;;;;;;;;;;;;;;;;4958115;28;8465;-84
2022/10/02 17:09:17;;;;;;;;;;;;;;;;;;4957944;28;8439;-84
2022/10/02 17:11:48;;;;;;;;;;;;;;;;;;4958621;28;8533;-84
2022/10/02 17:14:20;;;;;;;;;;;;;;;;;;4957707;28;8366;-83
2022/10/02 17:16:50;;;;;;;;;;;;;;;;;;4957897;28;8499;-82
2022/10/02 17:19:22;;;;;;;;;;;;;;;;;;4957754;28;7372;-85
2022/10/02 17:21:58;;;;;;;;;;;;;;;;;;4958750;28;7289;-84
2022/10/02 17:24:36;;;;;;;;;;;;;;;;;;4958799;28;7024;-84
2022/10/02 17:27:23;;;;;;;;;;;;;;;;;;4957827;28;8378;-84
2022/10/02 17:30:08;;;;;;;;;;;;;;;;;;4953972;28;7182;-83
2022/10/02 17:32:45;;;;;;;;;;;;;;;;;;4958015;28;7122;-82
2022/10/02 17:35:16;;;;;;;;;;;;;;;;;;4957366;28;8710;-83
2022/10/02 17:37:51;;;;;;;;;;;;;;;;;;4957872;28;8399;-83
2022/10/02 17:40:25;;;;;;;;;;;;;;;;;;4957650;28;7197;-81
2022/10/02 17:42:59;;;;;;;;;;;;;;;;;;4957925;28;8470;-82
2022/10/02 17:45:33;;;;;;;;;;;;;;;;;;4957408;28;8325;-83
2022/10/02 17:47:58;;;;;;;;;;;;;;;;;;4957461;28;8600;-83
2022/10/02 17:50:39;;;;;;;;;;;;;;;;;;4957723;28;7163;-84
2022/10/02 17:56:28;;;;;;;;;;;;;;;;;;4958958;28;7027;-82
2022/10/02 17:59:00;;;;;;;;;;;;;;;;;;4957383;28;7435;-82
2022/10/02 18:01:43;;;;;;;;;;;;;;;;;;4956961;28;8304;-83
2022/10/02 18:04:32;;;;;;;;;;;;;;;;;;4956847;28;8405;-83
2022/10/02 18:07:12;;;;;;;;;;;;;;;;;;4956768;28;7179;-81
2022/10/02 18:09:56;;;;;;;;;;;;;;;;;;4960525;28;7413;-82
2022/10/02 18:12:41;;;;;;;;;;;;;;;;;;4960109;28;8556;-83
2022/10/02 18:15:25;;;;;;;;;;;;;;;;;;4960593;28;8453;-83
2022/10/02 18:18:11;;;;;;;;;;;;;;;;;;4960089;28;8329;-83